createdAt,value
2022-10-07T00:00:51.449Z,97345.75
2022-10-07T00:03:19.889Z,97349.81
2022-10-07T00:05:59.798Z,97346.88
2022-10-07T00:08:27.492Z,97345.00
2022-10-07T00:10:55.142Z,97349.59
2022-10-07T00:13:22.865Z,97344.69
2022-10-07T00:15:50.487Z,97340.09
2022-10-07T00:18:18.189Z,97340.13
2022-10-07T00:20:45.865Z,97341.50
2022-10-07T00:23:17.845Z,97342.09
2022-10-07T00:25:45.540Z,97332.38
2022-10-07T00:28:13.256Z,97340.75
2022-10-07T00:30:40.928Z,97334.84
2022-10-07T00:33:08.651Z,97337.59
2022-10-07T00:35:36.782Z,97330.34
2022-10-07T00:38:06.274Z,97330.59
2022-10-07T00:40:35.292Z,97319.28
2022-10-07T00:43:21.409Z,97316.69
2022-10-07T00:45:49.617Z,97310.81
2022-10-07T00:48:24.646Z,97322.47
2022-10-07T00:50:54.691Z,97305.53
2022-10-07T00:53:26.460Z,97304.19
2022-10-07T00:55:57.720Z,97301.53
2022-10-07T00:58:26.330Z,97301.03
2022-10-07T01:00:54.051Z,97297.56
2022-10-07T01:03:22.103Z,97289.44
2022-10-07T01:05:51.112Z,97294.25
2022-10-07T01:08:19.303Z,97283.69
2022-10-07T01:10:55.609Z,97281.50
2022-10-07T01:13:32.027Z,97291.75
2022-10-07T01:16:07.372Z,97277.16
2022-10-07T01:18:42.231Z,97282.81
2022-10-07T01:21:21.260Z,97273.59
2022-10-07T01:24:09.572Z,97264.69
2022-10-07T01:26:49.503Z,97261.16
2022-10-07T01:29:23.627Z,97260.91
2022-10-07T01:31:58.596Z,97261.19
2022-10-07T01:34:27.617Z,97255.53
2022-10-07T01:36:59.056Z,97253.44
2022-10-07T01:39:32.787Z,97253.69
2022-10-07T01:42:01.921Z,97250.47
2022-10-07T01:44:31.109Z,97253.69
2022-10-07T01:46:59.746Z,97245.88
2022-10-07T01:49:27.635Z,97247.50
2022-10-07T01:52:16.660Z,97247.25
2022-10-07T01:55:08.146Z,97242.19
2022-10-07T01:57:47.349Z,97239.53
2022-10-07T02:00:17.133Z,97241.16
2022-10-07T02:03:21.338Z,97235.72
2022-10-07T02:05:52.798Z,97234.94
2022-10-07T02:08:31.041Z,97229.78
2022-10-07T02:11:13.907Z,97229.72
2022-10-07T02:13:55.853Z,97226.44
2022-10-07T02:16:33.275Z,97234.19
2022-10-07T02:19:05.485Z,97223.63
2022-10-07T02:21:35.808Z,97224.69
2022-10-07T02:24:05.308Z,97216.53
2022-10-07T02:26:35.064Z,97218.38
2022-10-07T02:29:08.617Z,97218.88
2022-10-07T02:31:41.650Z,97220.72
2022-10-07T02:34:15.170Z,97218.78
2022-10-07T02:36:51.988Z,97217.91
2022-10-07T02:39:19.780Z,97211.94
2022-10-07T02:41:52.107Z,97216.78
2022-10-07T02:44:32.011Z,97206.22
2022-10-07T02:47:07.085Z,97197.00
2022-10-07T02:49:38.951Z,97201.81
2022-10-07T02:52:10.228Z,97197.22
2022-10-07T02:54:42.667Z,97188.25
2022-10-07T02:57:13.768Z,97189.06
2022-10-07T02:59:45.525Z,97187.69
2022-10-07T03:02:21.131Z,97190.94
2022-10-07T03:04:49.716Z,97196.34
2022-10-07T03:07:17.592Z,97191.75
2022-10-07T03:09:45.410Z,97186.84
2022-10-07T03:12:13.831Z,97184.66
2022-10-07T03:14:44.805Z,97184.38
2022-10-07T03:17:12.565Z,97176.75
2022-10-07T03:19:40.378Z,97177.56
2022-10-07T03:22:08.580Z,97177.00
2022-10-07T03:24:38.395Z,97175.63
2022-10-07T03:27:07.204Z,97176.44
2022-10-07T03:29:35.544Z,97178.84
2022-10-07T03:32:05.846Z,97181.22
2022-10-07T03:34:34.505Z,97172.84
2022-10-07T03:37:02.792Z,97161.75
2022-10-07T03:39:30.596Z,97166.84
2022-10-07T03:41:58.395Z,97163.88
2022-10-07T03:44:26.309Z,97163.88
2022-10-07T03:46:55.870Z,97165.47
2022-10-07T03:49:27.634Z,97169.47
2022-10-07T03:51:56.094Z,97163.00
2022-10-07T03:54:23.932Z,97164.59
2022-10-07T03:56:52.084Z,97164.31
2022-10-07T03:59:19.789Z,97162.13
2022-10-07T04:01:48.185Z,97166.44
2022-10-07T04:04:15.944Z,97167.22
2022-10-07T04:06:45.951Z,97158.81
2022-10-07T04:09:15.763Z,97163.16
2022-10-07T04:11:44.362Z,97156.66
2022-10-07T04:14:12.952Z,97156.66
2022-10-07T04:16:41.926Z,97146.63
2022-10-07T04:19:12.039Z,97150.94
2022-10-07T04:21:39.787Z,97144.41
2022-10-07T04:24:08.951Z,97139.00
2022-10-07T04:26:38.029Z,97138.22
2022-10-07T04:29:05.804Z,97134.69
2022-10-07T04:31:33.885Z,97136.31
2022-10-07T04:34:05.914Z,97128.19
2022-10-07T04:36:37.258Z,97129.81
2022-10-07T04:39:11.944Z,97130.09
2022-10-07T04:41:44.387Z,97125.47
2022-10-07T04:44:20.140Z,97119.00
2022-10-07T04:46:56.467Z,97117.91
2022-10-07T04:49:26.996Z,97119.81
2022-10-07T04:51:56.649Z,97118.69
2022-10-07T04:54:28.309Z,97132.22
2022-10-07T04:56:56.987Z,97120.28
2022-10-07T04:59:29.809Z,97120.00
2022-10-07T05:01:58.393Z,97112.97
2022-10-07T05:04:27.663Z,97110.00
2022-10-07T05:06:55.979Z,97113.50
2022-10-07T05:09:24.991Z,97110.81
2022-10-07T05:11:55.560Z,97107.31
2022-10-07T05:14:24.126Z,97108.09
2022-10-07T05:16:53.933Z,97113.22
2022-10-07T05:19:24.123Z,97109.69
2022-10-07T05:21:51.864Z,97109.41
2022-10-07T05:24:20.065Z,97108.28
2022-10-07T05:26:48.856Z,97113.44
2022-10-07T05:29:19.487Z,97106.41
2022-10-07T05:31:51.056Z,97098.31
2022-10-07T05:34:23.310Z,97106.13
2022-10-07T05:36:51.084Z,97099.59
2022-10-07T05:39:18.831Z,97106.91
2022-10-07T05:42:00.291Z,97099.59
2022-10-07T05:44:37.657Z,97105.50
2022-10-07T05:47:06.560Z,97106.34
2022-10-07T05:49:35.914Z,97108.75
2022-10-07T05:52:04.090Z,97103.03
2022-10-07T05:54:33.258Z,97108.97
2022-10-07T05:57:01.671Z,97104.63
2022-10-07T05:59:30.996Z,97102.94
2022-10-07T06:02:00.907Z,97106.44
2022-10-07T06:04:29.570Z,97107.47
2022-10-07T06:06:57.410Z,97102.28
2022-10-07T06:09:57.124Z,97104.41
2022-10-07T06:12:42.526Z,97108.13
2022-10-07T06:15:13.947Z,97109.44
2022-10-07T06:17:47.039Z,97115.56
2022-10-07T06:20:18.402Z,97107.66
2022-10-07T06:22:46.961Z,97113.28
2022-10-07T06:25:16.595Z,97111.88
2022-10-07T06:27:47.413Z,97110.19
2022-10-07T06:30:19.132Z,97111.72
2022-10-07T06:32:48.500Z,97112.75
2022-10-07T06:35:16.283Z,97112.13
2022-10-07T06:37:44.338Z,97114.75
2022-10-07T06:40:12.664Z,97107.13
2022-10-07T06:42:40.885Z,97105.63
2022-10-07T06:45:28.127Z,97103.66
2022-10-07T06:48:00.944Z,97110.25
2022-10-07T06:50:29.560Z,97113.75
2022-10-07T06:52:57.956Z,97108.06
2022-10-07T06:55:27.851Z,97112.59
2022-10-07T06:57:55.563Z,97112.22
2022-10-07T07:00:23.343Z,97115.03
2022-10-07T07:02:51.184Z,97112.09
2022-10-07T07:05:20.547Z,97105.78
2022-10-07T07:07:49.500Z,97110.28
2022-10-07T07:10:17.875Z,97109.88
2022-10-07T07:12:49.389Z,97112.56
2022-10-07T07:15:18.160Z,97107.78
2022-10-07T07:17:46.244Z,97107.25
2022-10-07T07:20:14.808Z,97106.66
2022-10-07T07:22:44.407Z,97109.25
2022-10-07T07:25:12.678Z,97105.63
2022-10-07T07:27:41.136Z,97099.91
2022-10-07T07:30:11.673Z,97102.50
2022-10-07T07:32:39.860Z,97097.16
2022-10-07T07:35:09.086Z,97097.47
2022-10-07T07:37:37.155Z,97095.31
2022-10-07T07:40:07.186Z,97092.81
2022-10-07T07:42:35.305Z,97084.34
2022-10-07T07:45:03.567Z,97089.97
2022-10-07T07:47:32.771Z,97090.16
2022-10-07T07:50:01.408Z,97085.41
2022-10-07T07:52:32.832Z,97087.41
2022-10-07T07:55:03.092Z,97082.84
2022-10-07T07:57:33.135Z,97083.69
2022-10-07T08:00:07.411Z,97082.72
2022-10-07T08:02:41.893Z,97086.91
2022-10-07T08:05:13.466Z,97079.63
2022-10-07T08:07:41.563Z,97079.47
2022-10-07T08:10:11.371Z,97081.31
2022-10-07T08:12:41.089Z,97081.53
2022-10-07T08:15:10.768Z,97082.50
2022-10-07T08:17:39.014Z,97083.53
2022-10-07T08:20:10.543Z,97074.44
2022-10-07T08:22:38.668Z,97078.00
2022-10-07T08:25:07.514Z,97079.47
2022-10-07T08:27:35.911Z,97075.00
2022-10-07T08:30:07.059Z,97067.97
2022-10-07T08:32:35.041Z,97065.25
2022-10-07T08:35:06.903Z,97070.53
2022-10-07T08:37:34.600Z,97073.09
2022-10-07T08:40:02.455Z,97071.63
2022-10-07T08:42:35.913Z,97076.75
2022-10-07T08:45:08.484Z,97075.28
2022-10-07T08:47:40.200Z,97071.41
2022-10-07T08:50:18.959Z,97072.31
2022-10-07T08:52:51.200Z,97074.41
2022-10-07T08:55:24.731Z,97075.00
2022-10-07T08:58:19.620Z,97075.13
2022-10-07T09:00:56.686Z,97078.06
2022-10-07T09:03:35.789Z,97069.66
2022-10-07T09:06:10.667Z,97064.44
2022-10-07T09:08:43.492Z,97064.38
2022-10-07T09:11:16.624Z,97055.91
2022-10-07T09:13:48.979Z,97054.72
2022-10-07T09:16:24.035Z,97047.50
2022-10-07T09:18:54.314Z,97056.78
2022-10-07T09:21:25.439Z,97049.31
2022-10-07T09:23:57.353Z,97045.84
2022-10-07T09:26:27.510Z,97046.38
2022-10-07T09:28:55.451Z,97056.28
2022-10-07T09:31:26.107Z,97042.28
2022-10-07T09:33:54.278Z,97050.88
2022-10-07T09:36:22.495Z,97047.25
2022-10-07T09:38:52.514Z,97050.69
2022-10-07T09:41:25.851Z,97048.75
2022-10-07T09:44:03.412Z,97049.69
2022-10-07T09:46:54.962Z,97047.03
2022-10-07T09:49:43.184Z,97043.19
2022-10-07T09:52:19.726Z,97044.75
2022-10-07T09:54:49.388Z,97043.28
2022-10-07T09:57:32.831Z,97044.09
2022-10-07T10:00:22.272Z,97041.47
2022-10-07T10:02:54.157Z,97041.03
2022-10-07T10:05:25.605Z,97048.34
2022-10-07T10:08:00.104Z,97034.44
2022-10-07T10:10:29.940Z,97031.81
2022-10-07T10:12:59.934Z,97034.00
2022-10-07T10:15:37.873Z,97026.31
2022-10-07T10:18:26.375Z,97029.28
2022-10-07T10:20:54.075Z,97018.22
2022-10-07T10:23:29.598Z,97021.59
2022-10-07T10:26:33.708Z,97024.22
2022-10-07T10:29:18.458Z,97023.28
2022-10-07T10:32:09.934Z,97019.38
2022-10-07T10:34:48.907Z,97021.63
2022-10-07T10:37:21.229Z,97024.59
2022-10-07T10:40:03.502Z,97008.91
2022-10-07T10:42:43.373Z,97008.09
2022-10-07T10:45:20.811Z,97003.97
2022-10-07T10:48:13.483Z,96999.34
2022-10-07T10:50:54.548Z,97000.81
2022-10-07T10:53:34.548Z,96999.78
2022-10-07T10:56:16.331Z,97002.75
2022-10-07T10:58:55.507Z,96992.03
2022-10-07T11:01:31.506Z,96984.94
2022-10-07T11:04:30.620Z,96988.16
2022-10-07T11:07:02.824Z,96986.72
2022-10-07T11:09:38.531Z,96977.13
2022-10-07T11:12:19.578Z,96967.59
2022-10-07T11:14:49.920Z,96964.84
2022-10-07T11:17:19.855Z,96962.25
2022-10-07T11:20:04.365Z,96965.19
2022-10-07T11:22:40.108Z,96958.88
2022-10-07T11:25:21.918Z,96956.91
2022-10-07T11:27:54.473Z,96945.38
2022-10-07T11:30:24.503Z,96942.44
2022-10-07T11:32:57.149Z,96933.72
2022-10-07T11:35:31.116Z,96933.59
2022-10-07T11:38:04.418Z,96933.19
2022-10-07T11:40:35.396Z,96929.88
2022-10-07T11:43:09.568Z,96920.88
2022-10-07T11:45:42.423Z,96922.75
2022-10-07T11:48:15.574Z,96912.34
2022-10-07T11:50:56.068Z,96908.13
2022-10-07T11:53:28.401Z,96911.25
2022-10-07T11:56:00.402Z,96901.59
2022-10-07T11:58:32.625Z,96907.03
2022-10-07T12:01:32.590Z,96894.59
2022-10-07T12:04:25.479Z,96888.19
2022-10-07T12:07:30.563Z,96892.63
2022-10-07T12:10:21.788Z,96876.25
2022-10-07T12:12:51.247Z,96868.91
2022-10-07T12:15:31.577Z,96868.34
2022-10-07T12:18:28.406Z,96865.81
2022-10-07T12:21:06.605Z,96858.53
2022-10-07T12:23:42.356Z,96859.53
2022-10-07T12:26:47.187Z,96842.66
2022-10-07T12:29:24.408Z,96838.78
2022-10-07T12:31:52.498Z,96838.34
2022-10-07T12:34:27.970Z,96840.22
2022-10-07T12:37:34.047Z,96835.47
2022-10-07T12:40:12.924Z,96845.91
2022-10-07T12:42:47.267Z,96829.19
2022-10-07T12:45:16.137Z,96836.59
2022-10-07T12:47:44.642Z,96839.69
2022-10-07T12:50:16.237Z,96838.03
2022-10-07T12:52:47.937Z,96830.16
2022-10-07T12:55:21.027Z,96826.97
2022-10-07T12:57:52.867Z,96821.66
2022-10-07T13:00:24.353Z,96815.22
2022-10-07T13:03:30.097Z,96824.19
2022-10-07T13:06:27.614Z,96817.47
2022-10-07T13:09:33.622Z,96818.31
2022-10-07T13:12:18.462Z,96814.28
2022-10-07T13:14:57.041Z,96810.88
2022-10-07T13:17:35.248Z,96808.34
2022-10-07T13:20:20.048Z,96817.09
2022-10-07T13:22:48.981Z,96813.31
2022-10-07T13:25:20.316Z,96812.38
2022-10-07T13:27:53.131Z,96815.50
2022-10-07T13:30:36.891Z,96815.81
2022-10-07T13:33:17.108Z,96811.09
2022-10-07T13:35:44.853Z,96809.66
2022-10-07T13:38:25.552Z,96806.94
2022-10-07T13:40:57.439Z,96797.53
2022-10-07T13:43:29.879Z,96796.94
2022-10-07T13:45:59.387Z,96806.47
2022-10-07T13:48:31.186Z,96798.25
2022-10-07T13:51:00.285Z,96792.84
2022-10-07T13:53:30.621Z,96796.72
2022-10-07T13:56:18.320Z,96790.84
2022-10-07T13:58:47.734Z,96791.22
2022-10-07T14:01:16.276Z,96793.25
2022-10-07T14:04:25.188Z,96787.59
2022-10-07T14:07:01.154Z,96789.31
2022-10-07T14:09:37.837Z,96783.03
2022-10-07T14:12:08.944Z,96782.22
2022-10-07T14:14:41.852Z,96779.59
2022-10-07T14:17:17.780Z,96782.66
2022-10-07T14:19:53.018Z,96778.81
2022-10-07T14:22:27.895Z,96775.63
2022-10-07T14:24:58.326Z,96765.81
2022-10-07T14:27:53.499Z,96770.66
2022-10-07T14:30:53.293Z,96767.44
2022-10-07T14:33:45.916Z,96767.09
2022-10-07T14:36:16.385Z,96756.06
2022-10-07T14:38:46.373Z,96755.69
2022-10-07T14:41:16.055Z,96744.84
2022-10-07T14:43:46.059Z,96753.38
2022-10-07T14:46:19.910Z,96748.91
2022-10-07T14:48:49.196Z,96751.06
2022-10-07T14:51:20.168Z,96743.44
2022-10-07T14:53:51.195Z,96739.97
2022-10-07T14:56:25.089Z,96737.84
2022-10-07T14:58:52.888Z,96733.31
2022-10-07T15:01:22.107Z,96731.22
2022-10-07T15:03:50.262Z,96721.31
2022-10-07T15:06:18.873Z,96726.47
2022-10-07T15:08:46.993Z,96729.03
2022-10-07T15:11:15.580Z,96724.06
2022-10-07T15:13:46.474Z,96721.38
2022-10-07T15:16:17.071Z,96719.91
2022-10-07T15:18:51.876Z,96721.13
2022-10-07T15:21:20.885Z,96715.91
2022-10-07T15:23:51.583Z,96717.41
2022-10-07T15:26:21.301Z,96721.72
2022-10-07T15:28:51.356Z,96719.22
2022-10-07T15:31:19.255Z,96713.28
2022-10-07T15:33:49.704Z,96712.16
2022-10-07T15:36:18.016Z,96711.81
2022-10-07T15:38:45.943Z,96711.69
2022-10-07T15:41:29.952Z,96717.38
2022-10-07T15:43:58.697Z,96718.50
2022-10-07T15:46:26.637Z,96721.72
2022-10-07T15:48:56.992Z,96712.84
2022-10-07T15:51:25.450Z,96719.19
2022-10-07T15:53:53.603Z,96714.41
2022-10-07T15:56:22.068Z,96709.84
2022-10-07T15:58:50.088Z,96715.53
2022-10-07T16:01:17.896Z,96709.28
2022-10-07T16:03:48.026Z,96709.38
2022-10-07T16:06:21.381Z,96705.28
2022-10-07T16:08:49.420Z,96705.72
2022-10-07T16:11:17.785Z,96705.94
2022-10-07T16:13:47.403Z,96700.59
2022-10-07T16:16:17.458Z,96701.16
2022-10-07T16:18:47.252Z,96702.94
2022-10-07T16:21:18.943Z,96698.38
2022-10-07T16:23:47.627Z,96693.31
2022-10-07T16:26:17.667Z,96696.25
2022-10-07T16:29:05.738Z,96700.31
2022-10-07T16:31:36.383Z,96704.38
2022-10-07T16:34:05.048Z,96699.13
2022-10-07T16:36:35.519Z,96704.00
2022-10-07T16:39:05.112Z,96705.50
2022-10-07T16:41:33.840Z,96692.63
2022-10-07T16:44:02.693Z,96692.03
2022-10-07T16:46:31.927Z,96693.03
2022-10-07T16:49:00.260Z,96696.63
2022-10-07T16:51:29.737Z,96693.16
2022-10-07T16:54:03.288Z,96696.53
2022-10-07T16:56:32.887Z,96694.00
2022-10-07T16:59:03.007Z,96691.47
2022-10-07T17:01:31.629Z,96689.59
2022-10-07T17:04:00.653Z,96697.63
2022-10-07T17:06:30.200Z,96691.91
2022-10-07T17:09:02.933Z,96703.75
2022-10-07T17:11:32.576Z,96702.00
2022-10-07T17:14:02.069Z,96700.25
2022-10-07T17:16:31.714Z,96698.19
2022-10-07T17:18:59.779Z,96702.53
2022-10-07T17:21:28.020Z,96703.16
2022-10-07T17:23:58.228Z,96699.66
2022-10-07T17:26:28.343Z,96703.50
2022-10-07T17:29:03.970Z,96704.94
2022-10-07T17:31:33.562Z,96703.19
2022-10-07T17:34:01.660Z,96704.97
2022-10-07T17:36:29.511Z,96701.94
2022-10-07T17:38:57.245Z,96698.41
2022-10-07T17:41:27.831Z,96703.38
2022-10-07T17:43:57.847Z,96696.81
2022-10-07T17:46:27.234Z,96698.09
2022-10-07T17:48:57.412Z,96694.56
2022-10-07T17:51:28.936Z,96700.31
2022-10-07T17:53:58.475Z,96697.59
2022-10-07T17:56:28.744Z,96699.69
2022-10-07T17:58:57.092Z,96697.13
2022-10-07T18:01:27.344Z,96695.97
2022-10-07T18:03:57.374Z,96693.88
2022-10-07T18:06:26.749Z,96682.97
2022-10-07T18:08:54.880Z,96696.28
2022-10-07T18:11:22.688Z,96697.19
2022-10-07T18:14:09.143Z,96693.81
2022-10-07T18:16:36.959Z,96687.28
2022-10-07T18:19:04.715Z,96696.78
2022-10-07T18:21:35.427Z,96691.50
2022-10-07T18:24:03.127Z,96684.78
2022-10-07T18:26:30.830Z,96691.22
2022-10-07T18:29:01.125Z,96685.31
2022-10-07T18:31:28.847Z,96689.00
2022-10-07T18:33:57.457Z,96679.91
2022-10-07T18:36:25.127Z,96683.59
2022-10-07T18:38:53.219Z,96679.47
2022-10-07T18:41:22.505Z,96682.38
2022-10-07T18:43:50.228Z,96669.25
2022-10-07T18:46:20.284Z,96676.78
2022-10-07T18:48:48.939Z,96664.97
2022-10-07T18:51:17.884Z,96659.41
2022-10-07T18:53:47.529Z,96663.88
2022-10-07T18:56:17.284Z,96672.84
2022-10-07T18:58:47.207Z,96672.88
2022-10-07T19:01:17.131Z,96664.56
2022-10-07T19:03:48.746Z,96669.19
2022-10-07T19:06:18.692Z,96658.50
2022-10-07T19:08:47.500Z,96670.97
2022-10-07T19:11:18.004Z,96659.75
2022-10-07T19:13:47.957Z,96650.03
2022-10-07T19:16:16.365Z,96654.50
2022-10-07T19:18:46.061Z,96651.59
2022-10-07T19:21:15.161Z,96652.72
2022-10-07T19:23:43.552Z,96658.00
2022-10-07T19:26:12.692Z,96658.66
2022-10-07T19:28:41.062Z,96663.59
2022-10-07T19:31:14.278Z,96653.81
2022-10-07T19:33:43.305Z,96652.22
2022-10-07T19:36:13.987Z,96659.22
2022-10-07T19:38:44.361Z,96662.88
2022-10-07T19:41:14.288Z,96660.81
2022-10-07T19:43:43.280Z,96652.81
2022-10-07T19:46:11.734Z,96661.53
2022-10-07T19:48:39.962Z,96661.06
2022-10-07T19:51:09.788Z,96663.41
2022-10-07T19:53:42.205Z,96664.06
2022-10-07T19:56:15.748Z,96655.75
2022-10-07T19:58:49.999Z,96659.41
2022-10-07T20:01:19.347Z,96656.03
2022-10-07T20:03:47.092Z,96657.94
2022-10-07T20:06:15.144Z,96653.16
2022-10-07T20:08:46.641Z,96648.84
2022-10-07T20:11:15.765Z,96650.25
2022-10-07T20:13:43.663Z,96653.91
2022-10-07T20:16:14.531Z,96644.97
2022-10-07T20:18:42.306Z,96639.97
2022-10-07T20:21:13.140Z,96645.22
2022-10-07T20:23:42.665Z,96643.75
2022-10-07T20:26:15.857Z,96647.41
2022-10-07T20:28:43.728Z,96645.81
2022-10-07T20:31:14.592Z,96645.00
2022-10-07T20:33:44.107Z,96638.63
2022-10-07T20:36:13.642Z,96641.75
2022-10-07T20:38:59.529Z,96643.66
2022-10-07T20:41:46.888Z,96646.69
2022-10-07T20:44:16.406Z,96647.63
2022-10-07T20:46:44.565Z,96643.78
2022-10-07T20:49:22.495Z,96646.19
2022-10-07T20:51:50.604Z,96642.69
2022-10-07T20:54:19.158Z,96645.38
2022-10-07T20:56:48.839Z,96637.25
2022-10-07T20:59:16.564Z,96641.56
2022-10-07T21:01:44.804Z,96637.25
2022-10-07T21:04:14.600Z,96636.66
2022-10-07T21:06:42.454Z,96638.06
2022-10-07T21:09:11.226Z,96637.44
2022-10-07T21:11:39.340Z,96633.63
2022-10-07T21:14:08.656Z,96634.06
2022-10-07T21:16:36.588Z,96631.66
2022-10-07T21:19:04.939Z,96629.72
2022-10-07T21:21:32.597Z,96630.16
2022-10-07T21:24:00.281Z,96630.59
2022-10-07T21:26:27.972Z,96635.13
2022-10-07T21:28:55.687Z,96633.84
2022-10-07T21:31:25.425Z,96629.22
2022-10-07T21:33:53.256Z,96626.03
2022-10-07T21:36:23.692Z,96626.75
2022-10-07T21:38:57.699Z,96620.25
2022-10-07T21:41:27.817Z,96608.31
2022-10-07T21:43:58.178Z,96620.25
2022-10-07T21:46:28.945Z,96604.44
2022-10-07T21:48:57.276Z,96616.00
2022-10-07T21:51:26.921Z,96608.06
2022-10-07T21:53:55.623Z,96602.66
2022-10-07T21:56:23.284Z,96601.66
2022-10-07T21:58:52.975Z,96606.72
2022-10-07T22:01:22.784Z,96604.31
2022-10-07T22:03:56.712Z,96602.50
2022-10-07T22:06:45.523Z,96599.31
2022-10-07T22:09:14.051Z,96606.44
2022-10-07T22:11:41.927Z,96600.91
2022-10-07T22:14:12.832Z,96601.44
2022-10-07T22:16:41.090Z,96598.22
2022-10-07T22:19:10.658Z,96597.41
2022-10-07T22:21:40.273Z,96589.13
2022-10-07T22:24:09.740Z,96585.28
2022-10-07T22:26:40.561Z,96596.31
2022-10-07T22:29:09.649Z,96591.22
2022-10-07T22:31:37.365Z,96585.41
2022-10-07T22:34:05.373Z,96590.03
2022-10-07T22:36:33.749Z,96586.22
2022-10-07T22:39:01.518Z,96582.09
2022-10-07T22:41:29.436Z,96586.41
2022-10-07T22:43:58.927Z,96585.94
2022-10-07T22:46:28.862Z,96581.63
2022-10-07T22:48:57.962Z,96574.13
2022-10-07T22:51:28.386Z,96578.72
2022-10-07T22:53:58.398Z,96571.03
2022-10-07T22:56:27.524Z,96572.34
2022-10-07T22:58:57.955Z,96573.25
2022-10-07T23:01:29.263Z,96571.03
2022-10-07T23:03:58.727Z,96565.63
2022-10-07T23:06:26.601Z,96568.03
2022-10-07T23:08:54.424Z,96564.69
2022-10-07T23:11:25.411Z,96563.91
2022-10-07T23:13:54.450Z,96571.72
2022-10-07T23:16:23.900Z,96567.13
2022-10-07T23:18:53.351Z,96561.72
2022-10-07T23:21:23.176Z,96559.59
2022-10-07T23:23:52.888Z,96556.09
2022-10-07T23:26:24.549Z,96558.31
2022-10-07T23:28:53.170Z,96564.34
2022-10-07T23:31:24.174Z,96564.13
2022-10-07T23:33:52.991Z,96557.94
2022-10-07T23:36:22.165Z,96560.97
2022-10-07T23:38:51.296Z,96563.16
2022-10-07T23:41:20.533Z,96553.94
2022-10-07T23:43:50.455Z,96562.03
2022-10-07T23:46:19.855Z,96560.97
2022-10-07T23:48:47.928Z,96552.34
2022-10-07T23:51:18.304Z,96555.56
2022-10-07T23:53:46.358Z,96549.63
2022-10-07T23:56:14.113Z,96554.25
2022-10-07T23:58:42.332Z,96552.34
